Aviation Weather View - Albury, NSW
Albury
METAR YMAY 161030Z 27008KT 9999 SCT035 BKN041 OVC050 11/07 Q1022
ADVISORY INFORMATION ONLY.
Information and images sourced on a "best effort" basis from
our own station 2.7NM north of the field at 1016ft AMSL.
Weather information is NOT from the Albury Airport.

Contact Ross on 0409-578-660
Updated 1055Z (16-Jul-2019 at 20:55:00 local)
Temperature 9.3 Deg C
QNH is 1023
Humidity is 88% RH
Dewpoint is 7.4 Deg C
Estimated Cloudbase is 1800 feet amsl
Wind: 6 KT, gusting to 10 KT from 220 degrees magnetic (208 true)
Runway 07 Crosswind 3KT Right to Left 5KT downwind
Runway 25 Crosswind 3KT Left to Right
Wind last 10 minutes: Average 6 KT
Solar Insolation: 0 W/m^2

TWR: 123.25 SMC: 121.8 AWIS: 134.525 ATIS: 115.6/133.85 Map
How to interpret the wind rose
Wind Rose
Solar Radiation Decoded METAR data
Albury Airport (94896, YMAY)
WMO Index: 95896
ID Name: YMAY
Date/Time: 16-Jul-2019 1030 UTC
Lat/Lon: 36.07S 146.95E
Wind: 270 deg true at 08.0 knots
Temperature: 10.5 deg C
Dewpoint: 7.4 deg C
QNH: 1022.8
Rain since 9am: 0.0
Rain last 10 mins: 0.0
Visibility: -9999 metres
AutoVisibility: 10000 metres
Max Wind Gust last 10 mins: 11.0 knots
Scattered 1050m (3444ft)
Broken 1260m (4132ft)
Overcast 1530m (5018ft)

Calculated humidity: 81.1 %RH